Wadi Safaga — 6AGP — position and weather

sailwx.info

Track history (hours):
 
Tides and Currents Weather Stations Pressure Air Temp Water Temp Dewpoint Dewpoint Depression Visibility Wind Speed Wind Dir Waves Ship Positions

Wadi Safaga

Last reported at 2018-Feb-16 18:54 UTC. Time now 2018-Feb-24 06:15 UTC.
Position N 37°23' E 025°55'.

Length 229 m; draft 12.4 m.

Type: Cargo ship. MMSI: 622121422.

Date/timePositionNaut miles runAvg speedWind from/ knotsBaromVisibWave heightAir tempDewpointWater temp
2018-Feb-16 18:54N 37°23' E 025°55'410.3
2018-Feb-16 18:30N 37°26' E 025°51'510.9
2018-Feb-16 18:00N 37°31' E 025°48'510.9
2018-Feb-16 17:30N 37°36' E 025°45'610.7
2018-Feb-16 16:59N 37°41' E 025°44'510.7
2018-Feb-16 16:30N 37°46' E 025°43'  
2018-Feb-13 14:37N 44°30' E 037°28'110.6
2018-Feb-13 14:29N 44°31' E 037°29'510.5
2018-Feb-13 14:00N 44°33' E 037°36'510.6
2018-Feb-13 13:30N 44°35' E 037°42'510.6
2018-Feb-13 13:00N 44°38' E 037°49'3 6.0
2018-Feb-13 12:30N 44°41' E 037°50'0 0.9
2018-Feb-13 11:59N 44°41' E 037°51'0 0.0
2018-Feb-13 11:29N 44°41' E 037°51'0 0.0
2018-Feb-13 10:59N 44°41' E 037°51'0 0.0
2018-Feb-13 10:29N 44°41' E 037°51'0 0.0
2018-Feb-13 09:59N 44°41' E 037°51'0 0.0
2018-Feb-13 09:29N 44°41' E 037°51'0 0.2
2018-Feb-13 08:59N 44°41' E 037°51'0 0.3
2018-Feb-13 08:29N 44°41' E 037°51'0 0.7
2018-Feb-13 08:00N 44°41' E 037°51'2 5.0
2018-Feb-13 07:31N 44°38' E 037°52'3 5.8
2018-Feb-13 07:01N 44°35' E 037°52'4 7.6
2018-Feb-13 06:30N 44°31' E 037°51'1 2.3
2018-Feb-13 06:00N 44°30' E 037°51'0 1.0
2018-Feb-13 05:31N 44°31' E 037°51'2 3.8
2018-Feb-13 05:00N 44°29' E 037°52'4 8.0
2018-Feb-13 04:31N 44°27' E 037°57'917.1
2018-Feb-13 03:59N 44°36' E 038°01'0 0.0
2018-Feb-13 03:31N 44°36' E 038°01'917.5
2018-Feb-13 03:01N 44°27' E 037°57'1 1.2
2018-Feb-13 02:31N 44°27' E 037°57'1 1.2
2018-Feb-13 02:01N 44°28' E 037°56'1 1.3
2018-Feb-13 01:31N 44°28' E 037°55'1 1.3
2018-Feb-13 01:00N 44°28' E 037°54'1 1.5
2018-Feb-13 00:30N 44°28' E 037°53'1 1.4
2018-Feb-13 00:00N 44°29' E 037°52'1 1.6
2018-Feb-12 23:30N 44°29' E 037°51'1 1.7
2018-Feb-12 23:00N 44°29' E 037°50'1 1.6
2018-Feb-12 22:31N 44°30' E 037°49'1 1.1
2018-Feb-12 22:01N 44°30' E 037°50'3 5.7
2018-Feb-12 21:30N 44°29' E 037°53'917.4
2018-Feb-12 21:01N 44°36' E 038°01'0 0.0
2018-Feb-12 20:31N 44°36' E 038°01'0 0.0
2018-Feb-12 19:59N 44°36' E 038°01'0 0.0
2018-Feb-12 19:31N 44°36' E 038°01'0 0.0
2018-Feb-12 19:01N 44°36' E 038°01'915.5
2018-Feb-12 18:24N 44°27' E 038°04'1 1.5
2018-Feb-12 17:59N 44°27' E 038°04'1 1.7
2018-Feb-12 17:30N 44°27' E 038°02'1 1.8
2018-Feb-12 17:00N 44°27' E 038°01'1 1.7
2018-Feb-12 16:30N 44°28' E 038°00'1 1.8
2018-Feb-12 16:01N 44°28' E 037°59'1 1.8
2018-Feb-12 15:31N 44°28' E 037°58'1 1.9
2018-Feb-12 14:57N 44°28' E 037°56'1 1.9
2018-Feb-12 14:30N 44°28' E 037°55'1 1.9
2018-Feb-12 13:59N 44°28' E 037°54'1 1.2
2018-Feb-12 13:31N 44°28' E 037°53'4 7.5
2018-Feb-12 13:01N 44°32' E 037°52'0 0.8
2018-Feb-12 12:31N 44°32' E 037°53'1 1.4
2018-Feb-12 12:01N 44°32' E 037°52'1 1.5
2018-Feb-12 11:31N 44°31' E 037°51'1 1.0
2018-Feb-12 11:01N 44°31' E 037°50'3 5.4
2018-Feb-12 10:30N 44°34' E 037°51'1 1.1
2018-Feb-12 10:01N 44°34' E 037°51'0 1.0
2018-Feb-12 09:31N 44°33' E 037°51'0 0.9
2018-Feb-12 09:00N 44°33' E 037°51'0 0.9
2018-Feb-12 08:31N 44°33' E 037°50'1 1.0
2018-Feb-12 08:00N 44°33' E 037°49'1 1.2
2018-Feb-12 07:31N 44°32' E 037°49'1 1.4
2018-Feb-12 06:59N 44°33' E 037°49'4 7.5
2018-Feb-12 06:31N 44°37' E 037°49'4 8.1
2018-Feb-12 06:00N 44°41' E 037°50'1 1.4
2018-Feb-12 05:30N 44°41' E 037°50'0 0.1
2018-Feb-12 05:00N 44°41' E 037°51'0 0.0
2018-Feb-12 04:30N 44°41' E 037°51'0 0.0
2018-Feb-12 04:00N 44°41' E 037°51'0 0.1
2018-Feb-12 03:30N 44°41' E 037°50'0 0.0
2018-Feb-12 03:00N 44°41' E 037°50'0 0.0
2018-Feb-12 02:30N 44°41' E 037°50'0 0.1
2018-Feb-12 02:00N 44°41' E 037°50'0 0.1
2018-Feb-12 01:30N 44°41' E 037°50'0 0.1
2018-Feb-12 01:00N 44°41' E 037°50'0 0.0
2018-Feb-12 00:30N 44°41' E 037°50'0 0.1
2018-Feb-12 00:00N 44°41' E 037°50'0 0.0
2018-Feb-11 23:30N 44°41' E 037°50'0 0.0
2018-Feb-11 23:00N 44°41' E 037°50'0 0.1
2018-Feb-11 22:30N 44°41' E 037°50'0 0.2
2018-Feb-11 22:00N 44°41' E 037°51'0 0.1
2018-Feb-11 21:30N 44°41' E 037°51'0 0.1
2018-Feb-11 21:00N 44°41' E 037°51'0 0.0
2018-Feb-11 20:30N 44°41' E 037°51'0 0.1
2018-Feb-11 20:00N 44°41' E 037°51'0 0.1
2018-Feb-11 19:30N 44°41' E 037°51'0 0.1
2018-Feb-11 19:00N 44°41' E 037°50'0 0.2
2018-Feb-11 18:30N 44°41' E 037°50'2 3.5
2018-Feb-11 18:00N 44°42' E 037°49'1 2.9
2018-Feb-11 17:30N 44°44' E 037°47'0 0.4
2018-Feb-11 17:00N 44°44' E 037°47'0 0.0
2018-Feb-11 16:30N 44°44' E 037°47'0 0.0
2018-Feb-11 16:00N 44°44' E 037°47'0 0.0
2018-Feb-11 15:30N 44°44' E 037°47'0 0.0
2018-Feb-11 15:00N 44°44' E 037°47'0 0.0
2018-Feb-11 14:30N 44°44' E 037°47'0 0.0
2018-Feb-11 14:00N 44°44' E 037°47'0 0.0
2018-Feb-11 13:30N 44°44' E 037°47'0 0.0
2018-Feb-11 13:00N 44°44' E 037°47'0 0.0
2018-Feb-11 12:30N 44°44' E 037°47'0 0.0
2018-Feb-11 12:00N 44°44' E 037°47'0 0.0
2018-Feb-11 11:30N 44°44' E 037°47'0 0.0
2018-Feb-11 11:00N 44°44' E 037°47'0 0.0
2018-Feb-11 10:30N 44°44' E 037°47'0 0.0
2018-Feb-11 10:00N 44°44' E 037°47'0 0.0
2018-Feb-11 09:30N 44°44' E 037°47'0 0.0
2018-Feb-11 09:00N 44°44' E 037°47'0 0.0
2018-Feb-11 08:30N 44°44' E 037°47'0 0.0
2018-Feb-11 08:00N 44°44' E 037°47'0 0.0
2018-Feb-11 07:30N 44°44' E 037°47'0 0.0
2018-Feb-11 07:00N 44°44' E 037°47'0 0.0
2018-Feb-11 06:30N 44°44' E 037°47'0 0.0
2018-Feb-11 06:00N 44°44' E 037°47'0 0.0
2018-Feb-11 05:30N 44°44' E 037°47'0 0.0
2018-Feb-11 05:00N 44°44' E 037°47'0 0.0
2018-Feb-11 04:30N 44°44' E 037°47'0 0.0
2018-Feb-11 04:00N 44°44' E 037°47'0 0.0
2018-Feb-11 03:30N 44°44' E 037°47'0 0.0
2018-Feb-11 03:00N 44°44' E 037°47'0 0.0
2018-Feb-11 02:30N 44°44' E 037°47'0 0.0
2018-Feb-11 02:00N 44°44' E 037°47'0 0.0
2018-Feb-11 01:30N 44°44' E 037°47'0 0.0
2018-Feb-11 01:00N 44°44' E 037°47'0 0.0
2018-Feb-11 00:30N 44°44' E 037°47'0 0.0
2018-Feb-11 00:00N 44°44' E 037°47'0 0.0
2018-Feb-10 23:30N 44°44' E 037°47'0 0.0
2018-Feb-10 23:00N 44°44' E 037°47'0 0.0
2018-Feb-10 22:30N 44°44' E 037°47'0 0.0
2018-Feb-10 22:00N 44°44' E 037°47'0 0.0
2018-Feb-10 21:30N 44°44' E 037°47'0 0.0
2018-Feb-10 21:00N 44°44' E 037°47'0 0.0
2018-Feb-10 20:27N 44°44' E 037°47'0 0.0
2018-Feb-10 20:00N 44°44' E 037°47'0 0.0
2018-Feb-10 19:30N 44°44' E 037°47'0 0.0
2018-Feb-10 19:00N 44°44' E 037°47'0 0.0
2018-Feb-10 18:30N 44°44' E 037°47'0 0.0
2018-Feb-10 18:00N 44°44' E 037°47'0 0.0
2018-Feb-10 17:30N 44°44' E 037°47'0 0.0
2018-Feb-10 17:00N 44°44' E 037°47'0 0.0
2018-Feb-10 16:30N 44°44' E 037°47'0 0.0
2018-Feb-10 16:00N 44°44' E 037°47'0 0.0
2018-Feb-10 15:30N 44°44' E 037°47'0 0.0
2018-Feb-10 15:00N 44°44' E 037°47'0 0.0
2018-Feb-10 14:30N 44°44' E 037°47'0 0.0
2018-Feb-10 14:00N 44°44' E 037°47'0 0.0
2018-Feb-10 13:30N 44°44' E 037°47'0 0.0
2018-Feb-10 13:00N 44°44' E 037°47'0 0.0
2018-Feb-10 12:30N 44°44' E 037°47'0 0.0
2018-Feb-10 12:00N 44°44' E 037°47'0 0.0
2018-Feb-10 11:30N 44°44' E 037°47'0 0.0
2018-Feb-10 11:00N 44°44' E 037°47'0 0.0
2018-Feb-10 10:30N 44°44' E 037°47'0 0.0
2018-Feb-10 10:00N 44°44' E 037°47'0 0.0
2018-Feb-10 09:30N 44°44' E 037°47'0 0.0
2018-Feb-10 09:00N 44°44' E 037°47'0 0.0
2018-Feb-10 08:30N 44°44' E 037°47'0 0.0
2018-Feb-10 08:00N 44°44' E 037°47'0 0.0
2018-Feb-10 07:30N 44°44' E 037°47'0 0.0
2018-Feb-10 07:00N 44°44' E 037°47'0 0.0
2018-Feb-10 06:30N 44°44' E 037°47'0 0.0
2018-Feb-10 06:00N 44°44' E 037°47'0 0.0
2018-Feb-10 05:30N 44°44' E 037°47'0 0.0
2018-Feb-10 05:00N 44°44' E 037°47'0 0.0
2018-Feb-10 04:30N 44°44' E 037°47'0 0.0
2018-Feb-10 04:00N 44°44' E 037°47'0 0.0
2018-Feb-10 03:30N 44°44' E 037°47'0 0.0
2018-Feb-10 03:00N 44°44' E 037°47'0 0.0
2018-Feb-10 02:30N 44°44' E 037°47'0 0.0
2018-Feb-10 02:00N 44°44' E 037°47'0 0.0
2018-Feb-10 01:30N 44°44' E 037°47'0 0.0
2018-Feb-10 01:00N 44°44' E 037°47'0 0.0
2018-Feb-10 00:30N 44°44' E 037°47'0 0.0
2018-Feb-10 00:00N 44°44' E 037°47'0 0.0
2018-Feb-09 23:30N 44°44' E 037°47'0 0.0
2018-Feb-09 23:00N 44°44' E 037°47'0 0.0
2018-Feb-09 22:45N 44°44' E 037°47'0 0.0
2018-Feb-09 10:30N 44°44' E 037°47'1 2.2
2018-Feb-09 10:00N 44°43' E 037°48'3 7.0
2018-Feb-09 09:30N 44°40' E 037°50'3 6.9
2018-Feb-09 09:00N 44°37' E 037°53'2 3.7
2018-Feb-09 08:30N 44°35' E 037°54'0 0.0
2018-Feb-08 01:29N 44°35' E 037°54'0 0.0
2018-Feb-08 00:59N 44°35' E 037°54'0 0.0
2018-Feb-08 00:29N 44°35' E 037°54'0 0.0
2018-Feb-07 23:59N 44°35' E 037°54'0 0.1
2018-Feb-07 23:29N 44°35' E 037°54'0 0.0
2018-Feb-07 22:59N 44°35' E 037°54'0 0.0
2018-Feb-07 22:29N 44°35' E 037°54'0 0.0
2018-Feb-07 21:59N 44°35' E 037°54'0 0.0
2018-Feb-07 21:29N 44°35' E 037°54'0 0.0
2018-Feb-07 09:29N 44°35' E 037°54'0 0.1
2018-Feb-07 08:59N 44°35' E 037°54'0 0.0
2018-Feb-07 08:30N 44°35' E 037°54'0 0.2
2018-Feb-07 08:00N 44°35' E 037°54'0 0.2
2018-Feb-07 07:30N 44°35' E 037°54'0 0.1
2018-Feb-07 07:00N 44°35' E 037°54'0 0.0
2018-Feb-07 06:30N 44°35' E 037°54'0 0.4
2018-Feb-07 06:00N 44°35' E 037°54'3 5.2
2018-Feb-07 05:30N 44°35' E 037°50'510.3
2018-Feb-07 05:00N 44°34' E 037°43'612.0
2018-Feb-07 04:30N 44°31' E 037°36'612.4
2018-Feb-07 04:00N 44°27' E 037°30'612.1
2018-Feb-07 03:30N 44°22' E 037°24'612.4
2018-Feb-07 03:00N 44°20' E 037°16'  
Track history (hours):
 
Tides and Currents Weather Stations Pressure Air Temp Water Temp Dewpoint Dewpoint Depression Visibility Wind Speed Wind Dir Waves Ship Positions

Wadi Safaga

Last reported at 2018-Feb-16 18:54 UTC. Time now 2018-Feb-24 06:15 UTC.
Position N 37°23' E 025°55'.

Length 229 m; draft 12.4 m.

Type: Cargo ship. MMSI: 622121422.

Date/timePositionNaut miles runAvg speedWind from/ knotsBaromVisibWave heightAir tempDewpointWater temp
2018-Feb-16 18:54N 37°23' E 025°55'410.3
2018-Feb-16 18:30N 37°26' E 025°51'510.9
2018-Feb-16 18:00N 37°31' E 025°48'510.9
2018-Feb-16 17:30N 37°36' E 025°45'610.7
2018-Feb-16 16:59N 37°41' E 025°44'510.7
2018-Feb-16 16:30N 37°46' E 025°43'  
2018-Feb-13 14:37N 44°30' E 037°28'110.6
2018-Feb-13 14:29N 44°31' E 037°29'510.5
2018-Feb-13 14:00N 44°33' E 037°36'510.6
2018-Feb-13 13:30N 44°35' E 037°42'510.6
2018-Feb-13 13:00N 44°38' E 037°49'3 6.0
2018-Feb-13 12:30N 44°41' E 037°50'0 0.9
2018-Feb-13 11:59N 44°41' E 037°51'0 0.0
2018-Feb-13 11:29N 44°41' E 037°51'0 0.0
2018-Feb-13 10:59N 44°41' E 037°51'0 0.0
2018-Feb-13 10:29N 44°41' E 037°51'0 0.0
2018-Feb-13 09:59N 44°41' E 037°51'0 0.0
2018-Feb-13 09:29N 44°41' E 037°51'0 0.2
2018-Feb-13 08:59N 44°41' E 037°51'0 0.3
2018-Feb-13 08:29N 44°41' E 037°51'0 0.7
2018-Feb-13 08:00N 44°41' E 037°51'2 5.0
2018-Feb-13 07:31N 44°38' E 037°52'3 5.8
2018-Feb-13 07:01N 44°35' E 037°52'4 7.6
2018-Feb-13 06:30N 44°31' E 037°51'1 2.3
2018-Feb-13 06:00N 44°30' E 037°51'0 1.0
2018-Feb-13 05:31N 44°31' E 037°51'2 3.8
2018-Feb-13 05:00N 44°29' E 037°52'4 8.0
2018-Feb-13 04:31N 44°27' E 037°57'917.1
2018-Feb-13 03:59N 44°36' E 038°01'0 0.0
2018-Feb-13 03:31N 44°36' E 038°01'917.5
2018-Feb-13 03:01N 44°27' E 037°57'1 1.2
2018-Feb-13 02:31N 44°27' E 037°57'1 1.2
2018-Feb-13 02:01N 44°28' E 037°56'1 1.3
2018-Feb-13 01:31N 44°28' E 037°55'1 1.3
2018-Feb-13 01:00N 44°28' E 037°54'1 1.5
2018-Feb-13 00:30N 44°28' E 037°53'1 1.4
2018-Feb-13 00:00N 44°29' E 037°52'1 1.6
2018-Feb-12 23:30N 44°29' E 037°51'1 1.7
2018-Feb-12 23:00N 44°29' E 037°50'1 1.6
2018-Feb-12 22:31N 44°30' E 037°49'1 1.1
2018-Feb-12 22:01N 44°30' E 037°50'3 5.7
2018-Feb-12 21:30N 44°29' E 037°53'917.4
2018-Feb-12 21:01N 44°36' E 038°01'0 0.0
2018-Feb-12 20:31N 44°36' E 038°01'0 0.0
2018-Feb-12 19:59N 44°36' E 038°01'0 0.0
2018-Feb-12 19:31N 44°36' E 038°01'0 0.0
2018-Feb-12 19:01N 44°36' E 038°01'915.5
2018-Feb-12 18:24N 44°27' E 038°04'1 1.5
2018-Feb-12 17:59N 44°27' E 038°04'1 1.7
2018-Feb-12 17:30N 44°27' E 038°02'1 1.8
2018-Feb-12 17:00N 44°27' E 038°01'1 1.7
2018-Feb-12 16:30N 44°28' E 038°00'1 1.8
2018-Feb-12 16:01N 44°28' E 037°59'1 1.8
2018-Feb-12 15:31N 44°28' E 037°58'1 1.9
2018-Feb-12 14:57N 44°28' E 037°56'1 1.9
2018-Feb-12 14:30N 44°28' E 037°55'1 1.9
2018-Feb-12 13:59N 44°28' E 037°54'1 1.2
2018-Feb-12 13:31N 44°28' E 037°53'4 7.5
2018-Feb-12 13:01N 44°32' E 037°52'0 0.8
2018-Feb-12 12:31N 44°32' E 037°53'1 1.4
2018-Feb-12 12:01N 44°32' E 037°52'1 1.5
2018-Feb-12 11:31N 44°31' E 037°51'1 1.0
2018-Feb-12 11:01N 44°31' E 037°50'3 5.4
2018-Feb-12 10:30N 44°34' E 037°51'1 1.1
2018-Feb-12 10:01N 44°34' E 037°51'0 1.0
2018-Feb-12 09:31N 44°33' E 037°51'0 0.9
2018-Feb-12 09:00N 44°33' E 037°51'0 0.9
2018-Feb-12 08:31N 44°33' E 037°50'1 1.0
2018-Feb-12 08:00N 44°33' E 037°49'1 1.2
2018-Feb-12 07:31N 44°32' E 037°49'1 1.4
2018-Feb-12 06:59N 44°33' E 037°49'4 7.5
2018-Feb-12 06:31N 44°37' E 037°49'4 8.1
2018-Feb-12 06:00N 44°41' E 037°50'1 1.4
2018-Feb-12 05:30N 44°41' E 037°50'0 0.1
2018-Feb-12 05:00N 44°41' E 037°51'0 0.0
2018-Feb-12 04:30N 44°41' E 037°51'0 0.0
2018-Feb-12 04:00N 44°41' E 037°51'0 0.1
2018-Feb-12 03:30N 44°41' E 037°50'0 0.0
2018-Feb-12 03:00N 44°41' E 037°50'0 0.0
2018-Feb-12 02:30N 44°41' E 037°50'0 0.1
2018-Feb-12 02:00N 44°41' E 037°50'0 0.1
2018-Feb-12 01:30N 44°41' E 037°50'0 0.1
2018-Feb-12 01:00N 44°41' E 037°50'0 0.0
2018-Feb-12 00:30N 44°41' E 037°50'0 0.1
2018-Feb-12 00:00N 44°41' E 037°50'0 0.0
2018-Feb-11 23:30N 44°41' E 037°50'0 0.0
2018-Feb-11 23:00N 44°41' E 037°50'0 0.1
2018-Feb-11 22:30N 44°41' E 037°50'0 0.2
2018-Feb-11 22:00N 44°41' E 037°51'0 0.1
2018-Feb-11 21:30N 44°41' E 037°51'0 0.1
2018-Feb-11 21:00N 44°41' E 037°51'0 0.0
2018-Feb-11 20:30N 44°41' E 037°51'0 0.1
2018-Feb-11 20:00N 44°41' E 037°51'0 0.1
2018-Feb-11 19:30N 44°41' E 037°51'0 0.1
2018-Feb-11 19:00N 44°41' E 037°50'0 0.2
2018-Feb-11 18:30N 44°41' E 037°50'2 3.5
2018-Feb-11 18:00N 44°42' E 037°49'1 2.9
2018-Feb-11 17:30N 44°44' E 037°47'0 0.4
2018-Feb-11 17:00N 44°44' E 037°47'0 0.0
2018-Feb-11 16:30N 44°44' E 037°47'0 0.0
2018-Feb-11 16:00N 44°44' E 037°47'0 0.0
2018-Feb-11 15:30N 44°44' E 037°47'0 0.0
2018-Feb-11 15:00N 44°44' E 037°47'0 0.0
2018-Feb-11 14:30N 44°44' E 037°47'0 0.0
2018-Feb-11 14:00N 44°44' E 037°47'0 0.0
2018-Feb-11 13:30N 44°44' E 037°47'0 0.0
2018-Feb-11 13:00N 44°44' E 037°47'0 0.0
2018-Feb-11 12:30N 44°44' E 037°47'0 0.0
2018-Feb-11 12:00N 44°44' E 037°47'0 0.0
2018-Feb-11 11:30N 44°44' E 037°47'0 0.0
2018-Feb-11 11:00N 44°44' E 037°47'0 0.0
2018-Feb-11 10:30N 44°44' E 037°47'0 0.0
2018-Feb-11 10:00N 44°44' E 037°47'0 0.0
2018-Feb-11 09:30N 44°44' E 037°47'0 0.0
2018-Feb-11 09:00N 44°44' E 037°47'0 0.0
2018-Feb-11 08:30N 44°44' E 037°47'0 0.0
2018-Feb-11 08:00N 44°44' E 037°47'0 0.0
2018-Feb-11 07:30N 44°44' E 037°47'0 0.0
2018-Feb-11 07:00N 44°44' E 037°47'0 0.0
2018-Feb-11 06:30N 44°44' E 037°47'0 0.0
2018-Feb-11 06:00N 44°44' E 037°47'0 0.0
2018-Feb-11 05:30N 44°44' E 037°47'0 0.0
2018-Feb-11 05:00N 44°44' E 037°47'0 0.0
2018-Feb-11 04:30N 44°44' E 037°47'0 0.0
2018-Feb-11 04:00N 44°44' E 037°47'0 0.0
2018-Feb-11 03:30N 44°44' E 037°47'0 0.0
2018-Feb-11 03:00N 44°44' E 037°47'0 0.0
2018-Feb-11 02:30N 44°44' E 037°47'0 0.0
2018-Feb-11 02:00N 44°44' E 037°47'0 0.0
2018-Feb-11 01:30N 44°44' E 037°47'0 0.0
2018-Feb-11 01:00N 44°44' E 037°47'0 0.0
2018-Feb-11 00:30N 44°44' E 037°47'0 0.0
2018-Feb-11 00:00N 44°44' E 037°47'0 0.0
2018-Feb-10 23:30N 44°44' E 037°47'0 0.0
2018-Feb-10 23:00N 44°44' E 037°47'0 0.0
2018-Feb-10 22:30N 44°44' E 037°47'0 0.0
2018-Feb-10 22:00N 44°44' E 037°47'0 0.0
2018-Feb-10 21:30N 44°44' E 037°47'0 0.0
2018-Feb-10 21:00N 44°44' E 037°47'0 0.0
2018-Feb-10 20:27N 44°44' E 037°47'0 0.0
2018-Feb-10 20:00N 44°44' E 037°47'0 0.0
2018-Feb-10 19:30N 44°44' E 037°47'0 0.0
2018-Feb-10 19:00N 44°44' E 037°47'0 0.0
2018-Feb-10 18:30N 44°44' E 037°47'0 0.0
2018-Feb-10 18:00N 44°44' E 037°47'0 0.0
2018-Feb-10 17:30N 44°44' E 037°47'0 0.0
2018-Feb-10 17:00N 44°44' E 037°47'0 0.0
2018-Feb-10 16:30N 44°44' E 037°47'0 0.0
2018-Feb-10 16:00N 44°44' E 037°47'0 0.0
2018-Feb-10 15:30N 44°44' E 037°47'0 0.0
2018-Feb-10 15:00N 44°44' E 037°47'0 0.0
2018-Feb-10 14:30N 44°44' E 037°47'0 0.0
2018-Feb-10 14:00N 44°44' E 037°47'0 0.0
2018-Feb-10 13:30N 44°44' E 037°47'0 0.0
2018-Feb-10 13:00N 44°44' E 037°47'0 0.0
2018-Feb-10 12:30N 44°44' E 037°47'0 0.0
2018-Feb-10 12:00N 44°44' E 037°47'0 0.0
2018-Feb-10 11:30N 44°44' E 037°47'0 0.0
2018-Feb-10 11:00N 44°44' E 037°47'0 0.0
2018-Feb-10 10:30N 44°44' E 037°47'0 0.0
2018-Feb-10 10:00N 44°44' E 037°47'0 0.0
2018-Feb-10 09:30N 44°44' E 037°47'0 0.0
2018-Feb-10 09:00N 44°44' E 037°47'0 0.0
2018-Feb-10 08:30N 44°44' E 037°47'0 0.0
2018-Feb-10 08:00N 44°44' E 037°47'0 0.0
2018-Feb-10 07:30N 44°44' E 037°47'0 0.0
2018-Feb-10 07:00N 44°44' E 037°47'0 0.0
2018-Feb-10 06:30N 44°44' E 037°47'0 0.0
2018-Feb-10 06:00N 44°44' E 037°47'0 0.0
2018-Feb-10 05:30N 44°44' E 037°47'0 0.0
2018-Feb-10 05:00N 44°44' E 037°47'0 0.0
2018-Feb-10 04:30N 44°44' E 037°47'0 0.0
2018-Feb-10 04:00N 44°44' E 037°47'0 0.0
2018-Feb-10 03:30N 44°44' E 037°47'0 0.0
2018-Feb-10 03:00N 44°44' E 037°47'0 0.0
2018-Feb-10 02:30N 44°44' E 037°47'0 0.0
2018-Feb-10 02:00N 44°44' E 037°47'0 0.0
2018-Feb-10 01:30N 44°44' E 037°47'0 0.0
2018-Feb-10 01:00N 44°44' E 037°47'0 0.0
2018-Feb-10 00:30N 44°44' E 037°47'0 0.0
2018-Feb-10 00:00N 44°44' E 037°47'0 0.0
2018-Feb-09 23:30N 44°44' E 037°47'0 0.0
2018-Feb-09 23:00N 44°44' E 037°47'0 0.0
2018-Feb-09 22:45N 44°44' E 037°47'0 0.0
2018-Feb-09 10:30N 44°44' E 037°47'1 2.2
2018-Feb-09 10:00N 44°43' E 037°48'3 7.0
2018-Feb-09 09:30N 44°40' E 037°50'3 6.9
2018-Feb-09 09:00N 44°37' E 037°53'2 3.7
2018-Feb-09 08:30N 44°35' E 037°54'0 0.0
2018-Feb-08 01:29N 44°35' E 037°54'0 0.0
2018-Feb-08 00:59N 44°35' E 037°54'0 0.0
2018-Feb-08 00:29N 44°35' E 037°54'0 0.0
2018-Feb-07 23:59N 44°35' E 037°54'0 0.1
2018-Feb-07 23:29N 44°35' E 037°54'0 0.0
2018-Feb-07 22:59N 44°35' E 037°54'0 0.0
2018-Feb-07 22:29N 44°35' E 037°54'0 0.0
2018-Feb-07 21:59N 44°35' E 037°54'0 0.0
2018-Feb-07 21:29N 44°35' E 037°54'0 0.0
2018-Feb-07 09:29N 44°35' E 037°54'0 0.1
2018-Feb-07 08:59N 44°35' E 037°54'0 0.0
2018-Feb-07 08:30N 44°35' E 037°54'0 0.2
2018-Feb-07 08:00N 44°35' E 037°54'0 0.2
2018-Feb-07 07:30N 44°35' E 037°54'0 0.1
2018-Feb-07 07:00N 44°35' E 037°54'0 0.0
2018-Feb-07 06:30N 44°35' E 037°54'0 0.4
2018-Feb-07 06:00N 44°35' E 037°54'3 5.2
2018-Feb-07 05:30N 44°35' E 037°50'510.3
2018-Feb-07 05:00N 44°34' E 037°43'612.0
2018-Feb-07 04:30N 44°31' E 037°36'612.4
2018-Feb-07 04:00N 44°27' E 037°30'612.1
2018-Feb-07 03:30N 44°22' E 037°24'612.4
2018-Feb-07 03:00N 44°20' E 037°16'  

Dump ship's entire track history